LWSK/SKP METAR and TAF weather

Enter ICAO airport designator
Station Type Date Time Source
LWSK METAR 2020/07/04 08:30 UTC NOAA

LWSK 040830Z 01010KT 340V040 9999 FEW050 27/16 Q1015 NOSIG


Station Type Date Time Source
LWSK Decoded METAR 2020/07/04 08:30 UTC NOAA

Skopje-Petrovec, Macedonia, The Republic of (LWSK) 41-58N 021-39E 239M
Jul 04, 2020 - 04:30 AM EDT / 2020.07.04 0830 UTC
Wind: from the N (010 degrees) at 12 MPH (10 KT) (direction variable):0
Visibility: greater than 7 mile(s):0
Sky conditions: mostly clear
Temperature: 80 F (27 C)
Dew Point: 60 F (16 C)
Relative Humidity: 50%
Pressure (altimeter): 29.97 in. Hg (1015 hPa)
ob: LWSK 040830Z 01010KT 340V040 9999 FEW050 27/16 Q1015 NOSIG
cycle: 8

Station Type Date Time Source
LWSK TAF 2020/07/04 09:51 UTC NOAA

TAF COR LWSK 040830Z 0409/0509 36010KT 9999 FEW045 SCT070
TEMPO 0409/04116 02020KT SCT040
TEMPO 0413/0419 VRB15G25KT TSRA SCT035CB BKN040

Example: see airport list